Friday, May 25, 2018, 8:40 AM EDT
Back to Local

KRKD, Rockland, Knox County Regional Airport

Location: Owls Head, ME, United States Lat: 44.067
Local Time: 8:40 AM EDT (12:40 GMT) Lon: -69.1
Time Zone: US/Eastern Elev: 55 ft

Show me the last for .
Show Coded

Time T Td Feel RH Dir Speed Gust Alt SLP Vis Weather Sky Remarks
2018-05-25 07:56 61 51 - 69 250° 8 - 29.78 29.79 10 CLR 6-hr Min Temp (8am): 52.0°F
6-hr Max Temp (8am): 61.0°F
2018-05-25 06:56 56 50 - 80 260° 12 - 29.80 29.80 10 CLR None
2018-05-25 05:56 53 50 - 89 250° 12 - 29.81 29.81 10 CLR None
2018-05-25 04:56 52 49 - 89 240° 13 18 29.82 29.82 10 CLR None
2018-05-25 03:56 52 49 - 89 230° 10 18 29.84 29.85 10 CLR None
2018-05-25 02:56 52 48 - 86 220° 10 16 29.88 29.88 10 CLR Pressure falling rapidly
2018-05-25 01:56 52 48 - 86 220° 8 - 29.93 29.93 10 CLR 6-hr Min Temp (2am): 48.9°F
6-hr Max Temp (2am): 52.0°F
2018-05-25 00:56 52 48 - 86 220° 10 - 29.96 29.96 10 CLR 24-hr Min Temp (1am): 42.1°F
24-hr Max Temp (1am): 55.0°F
2018-05-24 22:56 50 46 48 86 220° 6 - 30.02 30.02 10 SCT120 None
2018-05-24 21:56 50 46 46 86 200° 9 - 30.04 30.04 10 CLR None
2018-05-24 20:56 50 46 47 86 230° 8 - 30.05 30.06 10 CLR None
2018-05-24 19:56 50 45 47 82 210° 8 - 30.06 30.06 10 CLR 6-hr Min Temp (8pm): 50.0°F
6-hr Max Temp (8pm): 55.0°F
2018-05-24 18:56 51 44 - 76 210° 9 - 30.06 30.06 10 CLR None
2018-05-24 17:56 52 43 - 71 200° 13 18 30.06 30.07 10 CLR None
2018-05-24 16:56 53 44 - 71 210° 8 16 30.07 30.08 10 CLR None
2018-05-24 15:56 53 43 - 68 190° 13 20 30.09 30.10 10 CLR None
2018-05-24 14:56 53 42 - 66 210° 15 21 30.10 30.11 10 CLR None
2018-05-24 13:56 53 45 - 73 170° 14 20 30.11 30.11 10 CLR 6-hr Min Temp (2pm): 48.0°F
6-hr Max Temp (2pm): 54.0°F
2018-05-24 12:56 53 44 - 71 180° 10 - 30.13 30.13 10 CLR None
2018-05-24 11:56 54 43 - 66 160° 12 - 30.14 30.14 10 FEW041 None
2018-05-24 11:47 54 43 - 66 160° 9 - 30.14 - 9 FEW029 BKN041 None
2018-05-24 11:35 54 43 - 66 180° 7 - 30.14 - 10 BKN029 BKN043 OVC050 None
2018-05-24 10:56 52 45 - 76 230° 8 - 30.14 30.14 10 BKN033 None
2018-05-24 09:56 49 40 45 70 160° 8 - 30.13 30.14 10 FEW033 OVC042 None
2018-05-24 08:56 49 42 47 77 Variable 5 - 30.13 30.14 10 OVC044 None

Support USWX by starting your Amazon purchase here.